createdAt,value
2018-05-12T00:01:16.903Z,96.00
2018-05-12T00:05:19.695Z,96.00
2018-05-12T00:09:22.439Z,96.00
2018-05-12T00:13:25.255Z,96.00
2018-05-12T00:17:28.047Z,95.60
2018-05-12T00:21:31.024Z,95.90
2018-05-12T00:25:34.502Z,95.80
2018-05-12T00:29:37.250Z,95.80
2018-05-12T00:33:40.040Z,95.80
2018-05-12T00:37:42.822Z,96.10
2018-05-12T00:41:46.309Z,96.10
2018-05-12T00:45:49.138Z,96.10
2018-05-12T00:49:52.637Z,96.00
2018-05-12T00:53:55.546Z,96.00
2018-05-12T00:57:59.042Z,95.80
2018-05-12T01:02:02.090Z,95.80
2018-05-12T01:06:04.837Z,95.70
2018-05-12T01:10:07.660Z,95.90
2018-05-12T01:14:14.343Z,96.00
2018-05-12T01:18:17.839Z,96.10
2018-05-12T01:22:20.666Z,96.00
2018-05-12T01:26:24.161Z,96.20
2018-05-12T01:30:26.933Z,96.20
2018-05-12T01:34:29.769Z,95.80
2018-05-12T01:38:33.260Z,95.90
2018-05-12T01:42:36.034Z,95.90
2018-05-12T01:46:39.570Z,96.20
2018-05-12T01:50:42.552Z,96.00
2018-05-12T01:54:45.291Z,95.90
2018-05-12T01:58:48.163Z,96.00
2018-05-12T02:02:51.150Z,96.10
2018-05-12T02:06:53.975Z,96.20
2018-05-12T02:10:56.722Z,96.20
2018-05-12T02:14:59.469Z,96.20
2018-05-12T02:19:02.313Z,96.10
2018-05-12T02:23:05.060Z,96.10
2018-05-12T02:27:07.861Z,96.20
2018-05-12T02:31:10.580Z,96.10
2018-05-12T02:35:14.129Z,96.10
2018-05-12T02:39:16.868Z,96.10
2018-05-12T02:43:19.585Z,96.20
2018-05-12T02:47:23.194Z,96.30
2018-05-12T02:51:25.928Z,96.30
2018-05-12T02:55:28.757Z,96.40
2018-05-12T02:59:32.490Z,96.00
2018-05-12T03:03:35.242Z,96.30
2018-05-12T03:07:38.247Z,96.20
2018-05-12T03:11:41.014Z,96.20
2018-05-12T03:15:44.633Z,96.70
2018-05-12T03:19:48.175Z,96.70
2018-05-12T03:23:51.005Z,96.60
2018-05-12T03:27:54.549Z,96.80
2018-05-12T03:31:57.327Z,96.80
2018-05-12T03:36:00.119Z,96.70
2018-05-12T03:40:03.058Z,96.80
2018-05-12T03:44:05.841Z,96.90
2018-05-12T03:48:08.596Z,96.80
2018-05-12T03:52:11.456Z,96.80
2018-05-12T03:56:15.083Z,96.30
2018-05-12T04:00:18.686Z,96.30
2018-05-12T04:04:34.292Z,96.50
2018-05-12T04:08:48.971Z,96.30
2018-05-12T04:12:51.753Z,96.30
2018-05-12T04:16:54.718Z,96.20
2018-05-12T04:20:57.576Z,96.30
2018-05-12T04:25:00.329Z,96.20
2018-05-12T04:29:03.797Z,96.40
2018-05-12T04:33:06.549Z,96.40
2018-05-12T04:37:10.169Z,96.40
2018-05-12T04:41:13.670Z,96.50
2018-05-12T04:45:17.245Z,96.40
2018-05-12T04:49:20.142Z,96.40
2018-05-12T04:53:22.888Z,96.50
2018-05-12T04:57:30.708Z,96.50
2018-05-12T05:01:35.032Z,96.40
2018-05-12T05:05:39.217Z,96.50
2018-05-12T05:09:41.923Z,96.60
2018-05-12T05:13:44.647Z,96.70
2018-05-12T05:17:48.278Z,96.80
2018-05-12T05:21:51.757Z,96.80
2018-05-12T05:25:54.845Z,96.80
2018-05-12T05:29:58.025Z,96.80
2018-05-12T05:34:00.722Z,96.80
2018-05-12T05:38:03.946Z,96.60
2018-05-12T05:42:06.733Z,96.60
2018-05-12T05:46:09.538Z,96.70
2018-05-12T05:50:12.362Z,96.80
2018-05-12T05:54:16.026Z,96.80
2018-05-12T05:58:23.012Z,96.80
2018-05-12T06:02:25.915Z,96.40
2018-05-12T06:06:28.647Z,96.70
2018-05-12T06:10:31.389Z,96.00
2018-05-12T06:14:34.954Z,96.20
2018-05-12T06:18:37.679Z,96.20
2018-05-12T06:22:40.577Z,95.60
2018-05-12T06:26:43.348Z,95.10
2018-05-12T06:30:46.205Z,94.90
2018-05-12T06:34:49.711Z,92.10
2018-05-12T06:38:53.237Z,91.20
2018-05-12T06:42:57.862Z,91.70
2018-05-12T06:47:00.585Z,91.70
2018-05-12T06:51:03.321Z,90.30
2018-05-12T06:55:08.483Z,90.60
2018-05-12T06:59:12.015Z,88.70
2018-05-12T07:03:14.753Z,88.70
2018-05-12T07:07:17.498Z,85.60
2018-05-12T07:11:20.296Z,85.90
2018-05-12T07:15:23.086Z,87.00
2018-05-12T07:19:25.944Z,82.40
2018-05-12T07:23:28.715Z,82.20
2018-05-12T07:27:33.303Z,80.60
2018-05-12T07:31:36.031Z,80.70
2018-05-12T07:35:42.104Z,76.40
2018-05-12T07:39:45.105Z,77.30
2018-05-12T07:43:48.045Z,77.10
2018-05-12T07:47:50.848Z,75.30
2018-05-12T07:51:53.581Z,73.80
2018-05-12T07:55:56.330Z,72.10
2018-05-12T08:00:00.362Z,68.50
2018-05-12T08:04:04.853Z,68.40
2018-05-12T08:08:18.614Z,69.40
2018-05-12T08:12:36.711Z,66.70
2018-05-12T08:16:55.631Z,66.80
2018-05-12T08:21:18.392Z,64.50
2018-05-12T08:25:24.440Z,60.90
2018-05-12T08:29:45.729Z,59.90
2018-05-12T08:33:59.874Z,60.10
2018-05-12T08:38:19.665Z,60.80
2018-05-12T08:42:27.308Z,59.60
2018-05-12T08:46:34.230Z,59.50
2018-05-12T08:50:37.052Z,52.30
2018-05-12T08:54:45.871Z,51.70
2018-05-12T08:58:48.737Z,49.50
2018-05-12T09:02:51.496Z,49.60
2018-05-12T09:06:54.977Z,45.10
2018-05-12T09:10:57.741Z,45.00
2018-05-12T09:15:00.471Z,43.70
2018-05-12T09:19:03.330Z,43.20
2018-05-12T09:23:06.789Z,43.50
2018-05-12T09:27:10.595Z,43.40
2018-05-12T09:31:13.351Z,43.70
2018-05-12T09:35:16.735Z,46.00
2018-05-12T09:39:19.467Z,45.20
2018-05-12T09:43:22.201Z,46.20
2018-05-12T09:47:24.926Z,48.30
2018-05-12T09:51:27.743Z,47.30
2018-05-12T09:55:31.238Z,48.70
2018-05-12T09:59:34.958Z,47.10
2018-05-12T10:03:37.726Z,46.30
2018-05-12T10:07:40.559Z,43.60
2018-05-12T10:11:44.045Z,42.10
2018-05-12T10:15:46.847Z,42.10
2018-05-12T10:19:49.688Z,42.30
2018-05-12T10:23:52.421Z,38.00
2018-05-12T10:27:55.144Z,41.70
2018-05-12T10:31:57.932Z,43.30
2018-05-12T10:36:00.661Z,41.50
2018-05-12T10:40:03.584Z,39.60
2018-05-12T10:44:06.469Z,37.30
2018-05-12T10:48:10.104Z,39.30
2018-05-12T10:52:12.841Z,39.40
2018-05-12T10:56:16.521Z,41.40
2018-05-12T11:00:19.635Z,40.30
2018-05-12T11:04:22.370Z,38.30
2018-05-12T11:08:25.215Z,36.50
2018-05-12T11:12:28.005Z,36.60
2018-05-12T11:16:31.552Z,33.90
2018-05-12T11:20:34.444Z,33.90
2018-05-12T11:24:37.584Z,34.10
2018-05-12T11:28:40.295Z,35.60
2018-05-12T11:32:43.230Z,33.90
2018-05-12T11:36:45.953Z,35.60
2018-05-12T11:40:48.889Z,36.10
2018-05-12T11:44:51.646Z,34.30
2018-05-12T11:48:54.387Z,37.30
2018-05-12T11:52:57.145Z,34.90
2018-05-12T11:56:59.902Z,33.10
2018-05-12T12:01:03.666Z,30.90
2018-05-12T12:05:06.419Z,30.90
2018-05-12T12:09:09.922Z,30.60
2018-05-12T12:13:12.737Z,30.50
2018-05-12T12:17:16.382Z,30.00
2018-05-12T12:21:19.275Z,29.90
2018-05-12T12:25:22.110Z,33.90
2018-05-12T12:29:24.846Z,38.50
2018-05-12T12:33:28.433Z,35.80
2018-05-12T12:37:31.928Z,34.80
2018-05-12T12:41:34.828Z,34.80
2018-05-12T12:45:37.518Z,33.00
2018-05-12T12:49:40.245Z,32.30
2018-05-12T12:53:43.042Z,33.00
2018-05-12T12:57:45.764Z,29.20
2018-05-12T13:01:49.261Z,29.70
2018-05-12T13:05:52.026Z,29.70
2018-05-12T13:09:54.774Z,34.60
2018-05-12T13:13:57.615Z,36.50
2018-05-12T13:18:00.369Z,39.50
2018-05-12T13:22:04.330Z,44.30
2018-05-12T13:26:07.960Z,46.10
2018-05-12T13:30:10.732Z,46.00
2018-05-12T13:34:13.612Z,47.00
2018-05-12T13:38:17.113Z,46.50
2018-05-12T13:42:19.832Z,46.30
2018-05-12T13:46:24.466Z,40.70
2018-05-12T13:50:28.007Z,35.30
2018-05-12T13:54:30.834Z,35.30
2018-05-12T13:58:33.589Z,35.60
2018-05-12T14:02:36.304Z,33.10
2018-05-12T14:06:39.096Z,33.50
2018-05-12T14:10:41.816Z,33.00
2018-05-12T14:14:44.553Z,30.90
2018-05-12T14:18:47.287Z,29.40
2018-05-12T14:22:49.988Z,30.00
2018-05-12T14:26:52.779Z,28.50
2018-05-12T14:30:55.842Z,29.30
2018-05-12T14:34:58.660Z,28.60
2018-05-12T14:39:02.577Z,29.90
2018-05-12T14:43:05.708Z,29.90
2018-05-12T14:47:08.503Z,28.70
2018-05-12T14:51:11.457Z,28.40
2018-05-12T14:55:14.354Z,26.40
2018-05-12T14:59:17.146Z,26.50
2018-05-12T15:03:19.855Z,27.00
2018-05-12T15:07:22.711Z,26.60
2018-05-12T15:11:25.576Z,25.60
2018-05-12T15:15:29.097Z,27.60
2018-05-12T15:19:32.598Z,30.00
2018-05-12T15:23:36.255Z,32.30
2018-05-12T15:27:38.996Z,32.30
2018-05-12T15:31:42.471Z,38.90
2018-05-12T15:35:45.269Z,38.90
2018-05-12T15:39:48.011Z,39.60
2018-05-12T15:43:51.702Z,39.80
2018-05-12T15:47:54.483Z,36.10
2018-05-12T15:51:57.304Z,34.80
2018-05-12T15:56:00.085Z,33.70
2018-05-12T16:00:03.654Z,33.80
2018-05-12T16:04:06.370Z,33.60
2018-05-12T16:08:10.444Z,31.40
2018-05-12T16:12:13.238Z,31.30
2018-05-12T16:16:16.675Z,32.80
2018-05-12T16:20:19.431Z,32.80
2018-05-12T16:24:22.243Z,33.60
2018-05-12T16:28:24.982Z,36.60
2018-05-12T16:32:27.692Z,41.10
2018-05-12T16:36:34.391Z,44.50
2018-05-12T16:40:37.163Z,44.40
2018-05-12T16:44:40.698Z,49.50
2018-05-12T16:48:44.272Z,50.60
2018-05-12T16:52:47.018Z,50.50
2018-05-12T16:56:49.774Z,50.40
2018-05-12T17:00:52.654Z,50.60
2018-05-12T17:04:55.446Z,51.00
2018-05-12T17:08:59.158Z,55.10
2018-05-12T17:13:01.987Z,55.10
2018-05-12T17:17:04.712Z,53.00
2018-05-12T17:21:07.545Z,54.70
2018-05-12T17:25:10.278Z,54.80
2018-05-12T17:29:13.163Z,55.80
2018-05-12T17:33:16.092Z,59.70
2018-05-12T17:37:18.873Z,60.20
2018-05-12T17:41:21.629Z,63.10
2018-05-12T17:45:24.353Z,64.30
2018-05-12T17:49:27.160Z,66.90
2018-05-12T17:53:29.889Z,73.60
2018-05-12T17:57:32.739Z,76.50
2018-05-12T18:01:35.592Z,78.00
2018-05-12T18:05:38.446Z,83.50
2018-05-12T18:09:41.826Z,85.00
2018-05-12T18:13:44.780Z,84.30
2018-05-12T18:17:47.513Z,86.40
2018-05-12T18:21:51.086Z,88.70
2018-05-12T18:25:53.822Z,89.00
2018-05-12T18:29:57.347Z,90.40
2018-05-12T18:34:00.967Z,90.00
2018-05-12T18:38:03.747Z,90.10
2018-05-12T18:42:07.309Z,91.80
2018-05-12T18:46:10.146Z,91.90
2018-05-12T18:50:12.930Z,91.20
2018-05-12T18:54:15.796Z,90.50
2018-05-12T18:58:18.559Z,90.40
2018-05-12T19:02:22.235Z,94.50
2018-05-12T19:06:25.097Z,94.50
2018-05-12T19:10:27.936Z,93.40
2018-05-12T19:14:30.769Z,93.40
2018-05-12T19:18:33.701Z,93.40
2018-05-12T19:22:36.495Z,93.90
2018-05-12T19:26:39.326Z,94.50
2018-05-12T19:30:42.076Z,94.30
2018-05-12T19:34:45.677Z,95.10
2018-05-12T19:38:48.706Z,95.10
2018-05-12T19:42:52.278Z,95.70
2018-05-12T19:46:55.038Z,95.70
2018-05-12T19:50:58.004Z,96.10
2018-05-12T19:55:01.577Z,95.80
2018-05-12T19:59:04.477Z,95.70
2018-05-12T20:03:07.226Z,96.00
2018-05-12T20:07:11.202Z,95.80
2018-05-12T20:11:14.265Z,96.40
2018-05-12T20:15:17.273Z,96.40
2018-05-12T20:19:20.896Z,96.40
2018-05-12T20:23:24.090Z,96.30
2018-05-12T20:27:27.663Z,96.30
2018-05-12T20:31:30.365Z,96.30
2018-05-12T20:35:33.410Z,96.70
2018-05-12T20:39:36.411Z,96.80
2018-05-12T20:43:39.529Z,96.80
2018-05-12T20:47:42.364Z,96.50
2018-05-12T20:51:45.150Z,96.80
2018-05-12T20:55:48.264Z,97.10
2018-05-12T20:59:51.125Z,97.10
2018-05-12T21:03:54.144Z,96.70
2018-05-12T21:08:00.468Z,96.40
2018-05-12T21:12:06.435Z,96.90
2018-05-12T21:16:13.499Z,97.00
2018-05-12T21:20:18.080Z,97.00
2018-05-12T21:24:21.384Z,97.40
2018-05-12T21:28:25.030Z,97.40
2018-05-12T21:32:27.813Z,97.40
2018-05-12T21:36:31.392Z,97.40
2018-05-12T21:40:34.495Z,97.40
2018-05-12T21:44:37.257Z,97.40
2018-05-12T21:48:40.014Z,97.30
2018-05-12T21:52:42.768Z,97.40
2018-05-12T21:56:45.532Z,97.70
2018-05-12T22:00:48.987Z,97.80
2018-05-12T22:04:51.742Z,97.80
2018-05-12T22:08:55.247Z,97.80
2018-05-12T22:12:58.731Z,98.00
2018-05-12T22:17:01.465Z,98.00
2018-05-12T22:21:04.263Z,97.80
2018-05-12T22:25:07.738Z,98.00
2018-05-12T22:29:10.469Z,98.00
2018-05-12T22:33:14.281Z,98.00
2018-05-12T22:37:17.750Z,97.80
2018-05-12T22:41:21.375Z,97.80
2018-05-12T22:45:24.202Z,97.70
2018-05-12T22:49:26.931Z,97.80
2018-05-12T22:53:29.707Z,97.90
2018-05-12T22:57:33.220Z,98.10
2018-05-12T23:01:36.736Z,98.00
2018-05-12T23:05:39.518Z,98.00
2018-05-12T23:09:42.345Z,98.00
2018-05-12T23:13:45.068Z,98.10
2018-05-12T23:17:47.822Z,98.30
2018-05-12T23:21:51.409Z,98.20
2018-05-12T23:25:54.267Z,98.20
2018-05-12T23:29:56.980Z,98.20
2018-05-12T23:33:59.712Z,98.20
2018-05-12T23:38:02.470Z,98.30
2018-05-12T23:42:05.310Z,98.60
2018-05-12T23:46:08.041Z,98.60
2018-05-12T23:50:10.797Z,98.70
2018-05-12T23:54:13.538Z,98.80
2018-05-12T23:58:16.280Z,98.70
